Terminal Aerodrome Forecast
Issued by NWS Austin/San Antonio, TX

Home | Current Version | Previous Version | Text Only | Print | Product List | Glossary On
Versions: 1 2 3 4 5 6 7 8 9 10 11 12 13
000
FTUS44 KEWX 281300 AAA
TAFSAT
TAF AMD
KSAT 281321Z 2813/2918 04004KT P6SM SCT012
      TEMPO 2813/2815 BKN012
     FM281600 10007KT P6SM SCT050
     FM290300 13009KT P6SM FEW070
     FM290900 16005KT P6SM OVC030=

USA.gov is the U.S. government's official web portal to all federal, state and local government web resources and services.